Time;durP1;ratioP1;P1;durP2;ratioP2;P2;SDS_P1;SDS_P2;PMS_P1;PMS_P2;Temp;Humidity;BMP_temperature;BMP_pressure;BME280_temperature;BME280_humidity;BME280_pressure;Samples;Min_cycle;Max_cycle;Signal;HPM_P1;HPM_P2
2023/04/18 00:02:18;;;;;;;16.77;8.20;;;9.30;99.90;;;;;;5073378;28;20400;-53
2023/04/18 00:04:45;;;;;;;19.17;7.83;;;9.20;1.00;;;;;;5071916;28;20932;-53
2023/04/18 00:07:13;;;;;;;18.15;8.60;;;9.20;99.90;;;;;;5070419;28;20399;-53
2023/04/18 00:09:43;;;;;;;15.95;8.32;;;9.20;1.00;;;;;;5071406;28;20396;-53
2023/04/18 00:12:10;;;;;;;15.20;7.90;;;9.20;1.00;;;;;;5070656;28;20401;-53
2023/04/18 00:14:36;;;;;;;17.77;9.13;;;9.30;47.40;;;;;;5068592;28;20427;-53
2023/04/18 00:17:07;;;;;;;16.52;7.78;;;9.30;1.00;;;;;;5070367;28;20503;-53
2023/04/18 00:19:33;;;;;;;16.30;8.07;;;9.30;1.00;;;;;;5071005;28;20457;-53
2023/04/18 00:21:59;;;;;;;18.08;9.10;;;9.30;1.00;;;;;;5070737;28;20400;-53
2023/04/18 00:24:24;;;;;;;19.90;9.33;;;9.30;1.00;;;;;;5070804;28;20465;-53
2023/04/18 00:26:50;;;;;;;17.75;8.82;;;9.30;1.00;;;;;;5070426;28;20487;-54
2023/04/18 00:29:16;;;;;;;18.83;8.70;;;9.40;99.90;;;;;;5068355;28;20458;-53
2023/04/18 00:31:41;;;;;;;22.33;9.57;;;9.30;95.70;;;;;;5071888;28;20395;-53
2023/04/18 00:34:07;;;;;;;18.57;9.07;;;9.30;96.80;;;;;;5052885;28;20682;-53
2023/04/18 00:36:32;;;;;;;17.33;9.27;;;8.20;99.90;;;;;;5071359;28;20395;-53
2023/04/18 00:38:58;;;;;;;17.20;9.10;;;9.20;99.90;;;;;;5069180;28;20774;-53
2023/04/18 00:41:26;;;;;;;19.60;9.38;;;9.10;99.90;;;;;;5070818;28;20426;-53
2023/04/18 00:43:53;;;;;;;19.50;9.77;;;9.20;84.70;;;;;;5069929;28;20412;-54
2023/04/18 00:46:18;;;;;;;19.65;9.38;;;9.00;1.00;;;;;;5071138;28;20899;-55
2023/04/18 00:48:44;;;;;;;19.87;10.10;;;10.30;1.00;;;;;;5071266;28;20411;-55
2023/04/18 00:51:10;;;;;;;17.27;9.50;;;9.00;21.20;;;;;;5070059;28;20408;-55
2023/04/18 00:53:39;;;;;;;17.42;8.95;;;9.20;99.90;;;;;;5070852;28;20734;-55
2023/04/18 00:56:06;;;;;;;19.08;8.93;;;8.90;1.00;;;;;;5069876;28;20893;-55
2023/04/18 00:58:32;;;;;;;22.58;10.00;;;9.20;1.00;;;;;;5070383;28;20518;-55
2023/04/18 01:00:57;;;;;;;18.67;9.50;;;9.00;1.00;;;;;;5069573;28;20812;-55
2023/04/18 01:03:24;;;;;;;18.00;9.90;;;9.00;1.00;;;;;;5071097;28;20524;-55
2023/04/18 01:05:50;;;;;;;19.47;9.30;;;9.00;1.00;;;;;;5069558;28;20400;-55
2023/04/18 01:08:18;;;;;;;19.48;9.52;;;9.00;99.90;;;;;;5068159;28;20511;-55
2023/04/18 01:10:44;;;;;;;18.88;9.93;;;8.90;1.00;;;;;;5070565;28;20426;-55
2023/04/18 01:13:13;;;;;;;18.48;9.32;;;8.90;99.90;;;;;;5069904;28;20419;-55
2023/04/18 01:15:41;;;;;;;18.80;9.80;;;8.90;1.00;;;;;;5068956;28;20758;-55
2023/04/18 01:18:07;;;;;;;18.55;9.15;;;8.90;99.90;;;;;;5069832;28;21006;-55
2023/04/18 01:20:42;;;;;;;23.40;10.23;;;8.90;99.90;;;;;;5070450;28;20399;-55
2023/04/18 01:23:09;;;;;;;17.77;9.55;;;9.00;99.90;;;;;;5069629;28;20430;-55
2023/04/18 01:25:36;;;;;;;19.35;9.43;;;9.00;99.90;;;;;;5070467;28;20392;-55
2023/04/18 01:28:03;;;;;;;19.88;9.52;;;9.10;1.00;;;;;;5069265;28;20411;-55
2023/04/18 01:30:29;;;;;;;21.02;10.02;;;9.10;1.00;;;;;;5069990;28;20449;-55
2023/04/18 01:32:54;;;;;;;16.80;8.30;;;9.00;1.00;;;;;;5069104;28;20783;-55
2023/04/18 01:35:20;;;;;;;18.67;8.88;;;10.30;99.90;;;;;;5069861;28;20841;-55
2023/04/18 01:37:45;;;;;;;22.87;9.80;;;8.90;1.00;;;;;;5051695;28;20407;-55
2023/04/18 01:40:11;;;;;;;20.60;9.27;;;9.00;1.00;;;;;;5069661;28;20427;-55
2023/04/18 01:42:37;;;;;;;19.17;9.00;;;8.90;1.00;;;;;;5069739;28;20395;-55
2023/04/18 01:45:04;;;;;;;16.98;8.63;;;8.80;64.30;;;;;;5069253;28;20391;-55
2023/04/18 01:47:30;;;;;;;18.63;9.25;;;8.80;99.90;;;;;;5069723;28;20426;-55
2023/04/18 01:49:55;;;;;;;19.80;8.30;;;8.80;99.90;;;;;;5068437;28;20388;-55
2023/04/18 01:52:21;;;;;;;17.20;9.40;;;8.70;1.00;;;;;;5069609;28;20487;-55
2023/04/18 01:54:46;;;;;;;20.03;8.90;;;8.80;99.90;;;;;;5070190;28;20392;-55
2023/04/18 01:57:12;;;;;;;20.83;9.40;;;8.90;1.00;;;;;;5068478;28;20450;-55
2023/04/18 01:59:37;;;;;;;18.60;8.23;;;8.90;99.90;;;;;;5069536;28;20737;-55
2023/04/18 02:02:03;;;;;;;18.77;9.07;;;8.70;92.30;;;;;;5068731;28;20479;-55
2023/04/18 02:04:28;;;;;;;17.20;8.60;;;8.70;66.20;;;;;;5069358;28;20388;-55
2023/04/18 02:06:54;;;;;;;16.10;8.77;;;8.60;99.90;;;;;;5068578;28;20565;-55
2023/04/18 02:09:20;;;;;;;17.60;8.67;;;8.50;1.00;;;;;;5069341;28;20441;-54
2023/04/18 02:11:45;;;;;;;16.30;8.80;;;8.50;1.00;;;;;;5069745;28;20420;-55
2023/04/18 02:14:11;;;;;;;16.73;8.03;;;9.70;1.00;;;;;;5069060;28;20384;-55
2023/04/18 02:16:37;;;;;;;21.25;8.75;;;8.60;1.00;;;;;;5069292;28;20418;-55
2023/04/18 02:19:03;;;;;;;17.30;8.60;;;8.60;1.00;;;;;;5068405;28;20400;-55
2023/04/18 02:21:29;;;;;;;21.98;8.60;;;8.70;1.00;;;;;;5069079;28;20407;-55
2023/04/18 02:23:55;;;;;;;15.48;7.28;;;8.70;1.00;;;;;;5068066;28;20396;-55
2023/04/18 02:26:22;;;;;;;17.30;8.35;;;9.40;1.00;;;;;;5069460;28;20384;-55
2023/04/18 02:28:48;;;;;;;18.67;8.80;;;9.10;99.90;;;;;;5069430;28;20408;-55
2023/04/18 02:31:14;;;;;;;16.63;7.87;;;8.50;91.70;;;;;;5068562;28;20387;-55
2023/04/18 02:33:45;;;;;;;18.52;8.38;;;9.30;74.30;;;;;;5069497;28;20437;-54
2023/04/18 02:36:13;;;;;;;17.05;8.02;;;9.20;99.90;;;;;;5068639;28;20636;-54
2023/04/18 02:38:39;;;;;;;17.90;8.70;;;8.30;99.90;;;;;;5069475;28;20391;-55
2023/04/18 02:41:04;;;;;;;17.03;8.33;;;8.20;1.00;;;;;;5068543;28;20384;-55
2023/04/18 02:43:30;;;;;;;18.85;9.07;;;8.30;1.00;;;;;;5069636;28;20406;-55
2023/04/18 02:45:57;;;;;;;18.90;9.70;;;8.30;1.00;;;;;;5065620;28;20386;-55
2023/04/18 02:48:22;;;;;;;23.00;9.13;;;8.20;1.00;;;;;;5069555;28;20383;-54
2023/04/18 02:50:48;;;;;;;19.58;8.88;;;8.90;1.00;;;;;;5069402;28;20858;-55
2023/04/18 02:53:15;;;;;;;16.57;8.47;;;8.30;1.00;;;;;;5065289;28;20448;-55
2023/04/18 02:55:41;;;;;;;18.00;8.70;;;8.30;99.90;;;;;;5068603;28;20403;-55
2023/04/18 02:58:06;;;;;;;18.90;8.82;;;9.20;99.90;;;;;;5067285;28;20446;-55
2023/04/18 03:00:33;;;;;;;17.90;7.90;;;8.10;1.00;;;;;;5068599;28;20408;-55
2023/04/18 03:02:59;;;;;;;21.20;9.20;;;8.00;1.00;;;;;;5067401;28;20837;-55
2023/04/18 03:05:25;;;;;;;20.17;11.17;;;7.90;1.00;;;;;;5068724;28;20409;-55
2023/04/18 03:07:50;;;;;;;18.13;8.68;;;8.20;1.00;;;;;;5067727;28;20403;-55
2023/04/18 03:10:16;;;;;;;17.60;8.52;;;7.80;1.00;;;;;;5065953;28;20396;-55
2023/04/18 03:12:42;;;;;;;19.23;8.40;;;7.80;1.00;;;;;;5059532;28;20496;-55
2023/04/18 03:15:07;;;;;;;20.80;9.88;;;8.80;1.00;;;;;;5057338;28;20384;-55
2023/04/18 03:17:34;;;;;;;22.08;9.70;;;7.70;1.00;;;;;;5069141;28;20407;-55
2023/04/18 03:19:59;;;;;;;17.45;8.50;;;7.60;1.00;;;;;;5068839;28;20427;-55
2023/04/18 03:22:25;;;;;;;18.83;9.00;;;9.10;1.00;;;;;;5069423;28;20419;-55
2023/04/18 03:24:50;;;;;;;16.48;9.35;;;7.50;1.00;;;;;;5069082;28;20387;-56
2023/04/18 03:27:16;;;;;;;19.13;9.20;;;7.60;3.20;;;;;;5069057;28;20376;-54
2023/04/18 03:29:42;;;;;;;20.20;9.95;;;7.70;1.00;;;;;;5069002;28;20432;-55
2023/04/18 03:32:08;;;;;;;20.87;9.63;;;8.90;1.00;;;;;;5068377;28;20848;-55
2023/04/18 03:34:34;;;;;;;18.98;8.63;;;8.10;1.00;;;;;;5069341;28;20422;-55
2023/04/18 03:37:00;;;;;;;19.00;8.77;;;7.70;99.90;;;;;;5068543;28;20864;-55
2023/04/18 03:39:25;;;;;;;17.60;8.98;;;7.80;99.90;;;;;;5069182;28;20749;-54
2023/04/18 03:41:51;;;;;;;22.63;9.80;;;7.70;99.90;;;;;;5063739;28;20909;-55
2023/04/18 03:44:17;;;;;;;18.40;8.70;;;8.60;1.00;;;;;;5066279;28;20462;-55
2023/04/18 03:46:43;;;;;;;20.80;10.20;;;7.70;99.90;;;;;;5068971;28;20395;-55
2023/04/18 03:49:08;;;;;;;19.83;9.63;;;7.70;99.90;;;;;;5068045;28;20387;-55
2023/04/18 03:51:48;;;;;;;21.77;10.45;;;8.80;99.90;;;;;;5068384;28;20486;-55
2023/04/18 03:54:15;;;;;;;19.08;9.48;;;8.20;1.00;;;;;;5065682;28;20778;-55
2023/04/18 03:56:41;;;;;;;18.80;8.88;;;7.70;99.90;;;;;;5068028;28;20849;-55
2023/04/18 03:59:06;;;;;;;21.85;9.63;;;9.10;2.10;;;;;;5067465;28;20498;-55
2023/04/18 04:01:32;;;;;;;19.17;10.93;;;8.40;99.90;;;;;;5067844;28;20384;-55
2023/04/18 04:03:58;;;;;;;19.08;9.23;;;7.60;99.90;;;;;;5067527;28;20453;-55
2023/04/18 04:06:23;;;;;;;20.42;10.30;;;7.70;99.90;;;;;;5067272;28;20434;-55
2023/04/18 04:08:49;;;;;;;21.83;9.50;;;7.40;99.90;;;;;;5068319;28;20548;-54
2023/04/18 04:11:16;;;;;;;19.45;9.95;;;8.30;1.00;;;;;;5067286;28;20461;-55
2023/04/18 04:13:41;;;;;;;20.83;9.83;;;7.50;1.00;;;;;;5072110;28;20423;-54
2023/04/18 04:16:07;;;;;;;22.33;10.00;;;8.30;1.00;;;;;;5071865;28;20415;-54
2023/04/18 04:18:33;;;;;;;21.48;10.20;;;7.40;1.00;;;;;;5072497;28;20856;-54
2023/04/18 04:20:59;;;;;;;22.13;10.40;;;7.60;1.00;;;;;;5070709;28;20438;-55
2023/04/18 04:23:25;;;;;;;23.50;10.88;;;7.60;99.90;;;;;;5071918;28;20968;-54
2023/04/18 04:25:55;;;;;;;19.92;10.15;;;7.50;1.00;;;;;;5071373;28;20892;-55
2023/04/18 04:28:25;;;;;;;21.40;10.60;;;8.70;1.00;;;;;;5052093;28;20393;-54
2023/04/18 04:30:51;;;;;;;19.03;9.70;;;7.50;99.90;;;;;;5059556;28;20396;-55
2023/04/18 04:38:55;;;;;;;20.60;9.53;;;7.40;99.90;;;;;;5115805;23;20440;-51
2023/04/18 04:41:21;;;;;;;26.35;11.20;;;7.30;1.00;;;;;;4996213;28;20508;-51
2023/04/18 04:43:47;;;;;;;20.77;10.68;;;7.40;1.00;;;;;;5003664;28;20912;-51
2023/04/18 04:46:13;;;;;;;20.80;10.37;;;7.50;99.90;;;;;;4996955;28;20394;-51
2023/04/18 04:48:39;;;;;;;21.73;9.80;;;7.50;99.90;;;;;;5006221;28;20411;-51
2023/04/18 04:51:05;;;;;;;21.30;9.90;;;7.40;99.90;;;;;;5002548;28;20429;-51
2023/04/18 04:53:30;;;;;;;20.38;10.05;;;8.10;99.90;;;;;;5004776;28;20835;-51
2023/04/18 04:55:57;;;;;;;23.00;9.50;;;7.40;1.00;;;;;;5002319;28;20452;-52
2023/04/18 04:58:23;;;;;;;20.90;10.18;;;7.60;99.90;;;;;;5001651;28;20421;-51
2023/04/18 05:00:51;;;;;;;19.33;9.90;;;8.20;1.00;;;;;;4991184;28;20413;-51
2023/04/18 05:03:17;;;;;;;22.77;9.98;;;8.80;99.90;;;;;;5004387;28;20423;-51
2023/04/18 05:05:42;;;;;;;22.38;9.98;;;7.50;99.90;;;;;;5010606;28;20917;-51
2023/04/18 05:08:08;;;;;;;21.73;10.00;;;7.60;99.90;;;;;;4998148;28;20412;-51
2023/04/18 05:10:35;;;;;;;18.53;9.10;;;7.60;1.00;;;;;;4997948;28;20820;-51
2023/04/18 05:13:02;;;;;;;20.25;9.80;;;7.60;1.00;;;;;;5003627;28;20403;-51
2023/04/18 05:15:28;;;;;;;19.65;9.13;;;7.70;1.00;;;;;;4992235;28;20426;-51
2023/04/18 05:17:54;;;;;;;22.85;11.05;;;7.80;1.00;;;;;;4990694;28;20515;-51
2023/04/18 05:20:19;;;;;;;21.00;10.10;;;7.70;1.00;;;;;;5002378;28;20401;-51
2023/04/18 05:22:45;;;;;;;20.50;9.90;;;7.70;99.90;;;;;;5010241;28;20516;-51
2023/04/18 05:25:11;;;;;;;23.38;9.73;;;7.70;29.20;;;;;;5008996;28;20434;-51
2023/04/18 05:27:37;;;;;;;22.02;10.32;;;6.60;99.90;;;;;;5010157;28;20395;-51
2023/04/18 05:30:03;;;;;;;15.90;8.33;;;7.70;99.90;;;;;;5010149;28;20393;-51
2023/04/18 05:32:28;;;;;;;21.88;10.48;;;7.60;99.90;;;;;;5009933;28;20376;-49
2023/04/18 05:34:54;;;;;;;23.47;10.90;;;7.70;99.90;;;;;;5010234;28;20389;-50
2023/04/18 05:37:21;;;;;;;22.55;10.40;;;7.70;99.90;;;;;;5009773;28;20479;-50
2023/04/18 05:39:48;;;;;;;22.35;10.30;;;7.70;99.90;;;;;;5010187;28;21221;-50
2023/04/18 05:42:14;;;;;;;22.33;10.93;;;7.80;99.90;;;;;;5009242;28;20523;-50
2023/04/18 05:44:39;;;;;;;29.53;10.80;;;7.90;53.60;;;;;;5008711;28;20385;-50
2023/04/18 05:47:05;;;;;;;17.98;9.40;;;7.90;99.90;;;;;;5010232;28;20423;-50
2023/04/18 05:49:31;;;;;;;18.03;9.03;;;8.00;1.00;;;;;;5009106;28;21180;-50
2023/04/18 05:51:57;;;;;;;20.07;8.60;;;8.10;1.00;;;;;;5009694;28;20380;-50
2023/04/18 05:54:26;;;;;;;18.38;9.88;;;8.00;1.00;;;;;;5008955;28;20395;-50
2023/04/18 05:56:52;;;;;;;19.83;9.73;;;8.00;99.90;;;;;;5009387;28;20864;-50
2023/04/18 05:59:19;;;;;;;21.85;9.60;;;8.00;99.90;;;;;;5008749;28;20424;-51
2023/04/18 06:01:45;;;;;;;20.52;9.77;;;9.80;1.00;;;;;;5009549;28;20385;-50
2023/04/18 06:04:11;;;;;;;21.05;9.15;;;8.20;99.90;;;;;;5012107;28;20405;-50
2023/04/18 06:06:36;;;;;;;19.70;10.20;;;8.20;1.00;;;;;;5013689;28;20715;-50
2023/04/18 06:09:02;;;;;;;18.08;9.10;;;8.20;99.90;;;;;;5026463;28;20410;-50
2023/04/18 06:11:28;;;;;;;21.13;9.90;;;8.50;99.90;;;;;;5008568;28;20413;-50
2023/04/18 06:13:54;;;;;;;26.23;11.50;;;8.40;1.00;;;;;;5016108;28;20390;-50
2023/04/18 06:16:21;;;;;;;24.50;11.23;;;8.30;1.00;;;;;;5027268;28;20391;-50
2023/04/18 06:18:46;;;;;;;23.90;10.40;;;8.20;1.00;;;;;;5027944;28;20402;-50
2023/04/18 06:21:13;;;;;;;27.80;11.17;;;8.30;1.00;;;;;;5028265;28;20925;-51
2023/04/18 06:23:38;;;;;;;21.15;10.25;;;8.40;1.00;;;;;;5012726;28;20388;-51
2023/04/18 06:26:05;;;;;;;20.50;9.65;;;8.60;99.90;;;;;;5008986;28;20519;-51
2023/04/18 06:28:30;;;;;;;19.95;9.30;;;8.70;99.90;;;;;;5008232;28;20546;-50
2023/04/18 06:30:56;;;;;;;19.33;9.67;;;8.80;99.90;;;;;;5007965;28;20804;-50
2023/04/18 06:33:21;;;;;;;19.55;9.93;;;8.80;99.90;;;;;;5008089;28;20392;-51
2023/04/18 06:35:47;;;;;;;18.50;9.03;;;8.80;99.90;;;;;;5008408;28;20874;-51
2023/04/18 06:38:12;;;;;;;18.60;8.80;;;9.00;99.90;;;;;;5007334;28;20515;-51
2023/04/18 06:40:38;;;;;;;19.03;9.73;;;8.60;99.90;;;;;;5023328;28;20399;-51
2023/04/18 06:43:04;;;;;;;20.23;9.80;;;8.50;99.90;;;;;;5028625;28;20387;-51
2023/04/18 06:45:30;;;;;;;23.80;10.17;;;8.50;1.00;;;;;;5027252;28;21011;-50
2023/04/18 06:47:58;;;;;;;22.40;11.07;;;8.60;1.00;;;;;;5028344;28;20389;-51
2023/04/18 06:50:25;;;;;;;18.23;9.20;;;8.70;99.90;;;;;;5027328;28;20413;-51
2023/04/18 06:52:50;;;;;;;20.15;10.60;;;9.40;1.00;;;;;;5027302;28;20482;-51
2023/04/18 06:55:16;;;;;;;20.47;9.47;;;8.70;99.90;;;;;;5027688;28;20455;-51
2023/04/18 06:57:42;;;;;;;19.33;9.38;;;8.70;34.60;;;;;;5028397;28;20874;-51
2023/04/18 07:00:09;;;;;;;19.48;8.93;;;8.80;99.90;;;;;;5027043;28;20425;-51
2023/04/18 07:02:39;;;;;;;18.85;8.88;;;8.80;99.90;;;;;;5027591;28;20387;-51
2023/04/18 07:05:06;;;;;;;20.85;9.02;;;8.90;1.00;;;;;;5028493;28;20379;-50
2023/04/18 07:07:32;;;;;;;17.60;8.40;;;8.80;1.00;;;;;;5027314;28;20383;-50
2023/04/18 07:10:00;;;;;;;19.00;8.77;;;8.80;1.00;;;;;;5028569;28;20399;-50
2023/04/18 07:12:26;;;;;;;21.60;9.90;;;8.80;1.00;;;;;;5028045;28;20414;-51
2023/04/18 07:14:53;;;;;;;20.13;9.23;;;8.80;1.00;;;;;;5011425;28;20385;-50
2023/04/18 07:17:18;;;;;;;20.90;9.50;;;9.00;1.00;;;;;;5007642;28;20408;-51
2023/04/18 07:19:44;;;;;;;20.50;9.13;;;9.10;1.00;;;;;;5008373;28;20416;-51
2023/04/18 07:22:10;;;;;;;21.87;9.07;;;9.10;1.00;;;;;;5008387;28;20387;-51
2023/04/18 07:24:38;;;;;;;17.00;8.30;;;9.20;1.00;;;;;;5008146;28;20817;-51
2023/04/18 07:27:04;;;;;;;17.98;8.75;;;9.40;99.90;;;;;;5008682;28;20401;-51
2023/04/18 07:29:30;;;;;;;21.35;9.00;;;9.30;2.70;;;;;;5008220;28;20862;-51
2023/04/18 07:31:56;;;;;;;18.40;8.68;;;9.50;1.00;;;;;;5008526;28;20393;-51
2023/04/18 07:34:22;;;;;;;16.67;8.10;;;9.40;35.90;;;;;;5008110;28;20403;-52
2023/04/18 07:36:48;;;;;;;17.50;8.45;;;9.20;99.90;;;;;;5008147;28;20413;-50
2023/04/18 07:39:14;;;;;;;18.77;8.50;;;9.30;1.00;;;;;;5008180;28;20893;-50
2023/04/18 07:41:39;;;;;;;19.55;9.10;;;9.20;51.10;;;;;;5007931;28;20475;-50
2023/04/18 07:44:05;;;;;;;17.47;8.60;;;10.30;1.00;;;;;;5008660;28;20733;-50
2023/04/18 07:46:32;;;;;;;20.05;8.55;;;10.50;99.90;;;;;;5006437;28;20444;-50
2023/04/18 07:48:58;;;;;;;17.35;8.70;;;10.00;1.00;;;;;;5010465;28;20412;-51
2023/04/18 07:51:29;;;;;;;18.70;8.03;;;10.00;99.90;;;;;;5011466;28;20434;-51
2023/04/18 07:53:56;;;;;;;20.30;9.02;;;10.00;99.90;;;;;;5010850;28;20397;-51
2023/04/18 07:56:21;;;;;;;19.17;7.97;;;10.00;26.80;;;;;;5010482;28;20439;-51
2023/04/18 07:58:47;;;;;;;16.50;7.93;;;10.20;1.00;;;;;;5012227;28;20820;-51
2023/04/18 08:01:14;;;;;;;18.80;8.80;;;10.40;1.00;;;;;;5010948;28;20388;-51
2023/04/18 08:03:40;;;;;;;18.90;8.05;;;10.50;1.00;;;;;;5012323;28;20472;-50
2023/04/18 08:06:06;;;;;;;19.40;7.93;;;10.70;1.00;;;;;;5012184;28;20389;-51
2023/04/18 08:08:32;;;;;;;16.37;7.47;;;10.80;1.00;;;;;;5011180;28;20412;-52
2023/04/18 08:10:58;;;;;;;18.65;8.40;;;11.30;99.90;;;;;;5012128;28;20395;-51
2023/04/18 08:13:23;;;;;;;17.05;8.15;;;11.50;99.90;;;;;;5014594;28;20395;-50
2023/04/18 08:15:49;;;;;;;17.70;7.70;;;11.70;99.90;;;;;;5031503;28;20713;-52
2023/04/18 08:18:15;;;;;;;17.57;7.87;;;11.50;99.90;;;;;;5031131;28;20906;-52
2023/04/18 08:20:40;;;;;;;16.88;8.50;;;11.10;99.90;;;;;;5029886;28;20399;-52
2023/04/18 08:23:07;;;;;;;17.60;8.30;;;11.30;99.90;;;;;;5030682;28;20943;-52
2023/04/18 08:25:34;;;;;;;19.33;8.95;;;11.90;99.90;;;;;;5031226;28;20533;-51
2023/04/18 08:28:00;;;;;;;18.08;7.82;;;12.50;93.80;;;;;;5030921;28;20395;-51
2023/04/18 08:30:26;;;;;;;16.43;8.30;;;13.30;1.00;;;;;;5030117;28;20433;-51
2023/04/18 08:32:52;;;;;;;17.23;8.02;;;13.60;1.00;;;;;;5029685;28;20387;-51
2023/04/18 08:35:17;;;;;;;19.33;9.03;;;13.50;1.00;;;;;;5029153;28;20437;-52
2023/04/18 08:37:43;;;;;;;18.45;8.10;;;13.50;1.00;;;;;;5030111;28;20434;-52
2023/04/18 08:40:08;;;;;;;17.75;8.70;;;13.20;1.00;;;;;;5031302;28;20379;-52
2023/04/18 08:42:36;;;;;;;21.43;8.80;;;13.10;1.00;;;;;;5030239;28;20499;-55
2023/04/18 08:45:03;;;;;;;16.98;8.55;;;13.00;1.00;;;;;;5030997;28;20390;-51
2023/04/18 08:47:28;;;;;;;21.23;9.02;;;13.00;1.00;;;;;;5030149;28;20433;-52
2023/04/18 08:49:55;;;;;;;17.17;8.43;;;13.10;1.00;;;;;;5031009;28;20383;-52
2023/04/18 08:52:22;;;;;;;18.17;8.40;;;12.80;1.00;;;;;;5029877;28;20878;-52
2023/04/18 08:54:49;;;;;;;18.38;8.70;;;12.50;1.00;;;;;;5030810;28;20466;-51
2023/04/18 08:57:16;;;;;;;20.40;9.25;;;12.30;1.00;;;;;;5030463;28;20552;-51
2023/04/18 08:59:44;;;;;;;17.45;8.98;;;12.40;1.00;;;;;;5029420;28;20391;-52
2023/04/18 09:02:14;;;;;;;20.95;8.60;;;13.90;1.00;;;;;;5030697;28;20893;-51
2023/04/18 09:04:44;;;;;;;16.33;7.80;;;12.90;1.00;;;;;;5030214;28;20949;-51
2023/04/18 09:07:14;;;;;;;17.90;8.07;;;13.20;1.00;;;;;;5030801;28;20452;-51
2023/04/18 09:09:49;;;;;;;17.65;7.55;;;13.90;1.00;;;;;;5030296;28;20781;-51
2023/04/18 09:12:18;;;;;;;17.40;9.00;;;13.90;1.00;;;;;;5028504;28;20423;-51
2023/04/18 09:14:45;;;;;;;18.97;7.93;;;13.90;1.00;;;;;;5014552;28;20389;-51
2023/04/18 09:17:13;;;;;;;18.05;8.68;;;13.60;1.00;;;;;;5010207;28;20432;-52
2023/04/18 09:19:49;;;;;;;18.30;9.18;;;13.10;1.00;;;;;;5009965;28;20480;-52
2023/04/18 09:22:15;;;;;;;19.90;9.10;;;13.10;1.00;;;;;;5008755;28;20425;-52
2023/04/18 09:24:52;;;;;;;18.02;8.25;;;12.90;1.00;;;;;;5010625;28;20694;-51
2023/04/18 09:27:21;;;;;;;14.88;8.05;;;12.60;1.00;;;;;;5009786;28;20485;-52
2023/04/18 09:29:50;;;;;;;16.58;8.10;;;12.20;1.00;;;;;;5010242;28;20392;-52
2023/04/18 09:32:25;;;;;;;20.52;9.07;;;12.00;1.00;;;;;;5009848;28;20739;-52
2023/04/18 09:34:56;;;;;;;18.88;8.98;;;12.20;1.00;;;;;;5010374;28;20393;-52
2023/04/18 09:37:23;;;;;;;18.05;9.32;;;12.20;1.00;;;;;;5009358;28;20434;-52
2023/04/18 09:39:52;;;;;;;17.33;7.85;;;12.30;1.00;;;;;;5009971;28;20435;-51
2023/04/18 09:42:18;;;;;;;17.08;7.95;;;12.40;1.00;;;;;;5008889;28;20413;-52
2023/04/18 09:45:06;;;;;;;17.48;8.00;;;12.50;1.00;;;;;;5009937;28;20483;-52
2023/04/18 09:47:35;;;;;;;18.75;8.88;;;12.50;1.00;;;;;;5007718;28;20401;-52
2023/04/18 09:50:05;;;;;;;17.67;8.30;;;12.70;1.00;;;;;;5009750;28;20566;-52
2023/04/18 09:52:34;;;;;;;17.08;7.88;;;13.10;1.00;;;;;;5007636;28;20389;-52
2023/04/18 09:55:03;;;;;;;19.23;9.15;;;13.40;1.00;;;;;;5009619;28;20400;-51
2023/04/18 09:57:30;;;;;;;16.60;8.90;;;13.60;1.00;;;;;;5008705;28;20467;-51
2023/04/18 10:00:13;;;;;;;16.55;7.85;;;13.60;1.00;;;;;;5009422;28;20471;-51
2023/04/18 10:02:55;;;;;;;15.77;8.45;;;13.60;1.00;;;;;;5008984;28;20387;-52
2023/04/18 10:05:24;;;;;;;19.10;8.00;;;14.00;1.00;;;;;;5009030;28;20389;-51
2023/04/18 10:07:51;;;;;;;16.58;7.65;;;14.50;1.00;;;;;;5008993;28;20400;-52
2023/04/18 10:10:17;;;;;;;15.90;7.90;;;14.30;1.00;;;;;;5007339;28;20389;-52
2023/04/18 10:12:43;;;;;;;16.27;7.80;;;13.90;1.00;;;;;;5008928;28;20907;-52
2023/04/18 10:15:10;;;;;;;16.05;8.00;;;14.10;1.00;;;;;;5028231;28;20416;-52
2023/04/18 10:17:51;;;;;;;17.02;8.20;;;14.00;1.00;;;;;;5026905;28;20581;-52
2023/04/18 10:20:19;;;;;;;16.20;8.00;;;14.00;1.00;;;;;;5026793;28;20406;-51
2023/04/18 10:22:47;;;;;;;15.90;8.07;;;14.00;1.00;;;;;;5028873;28;20379;-52
2023/04/18 10:25:13;;;;;;;18.20;7.90;;;14.00;1.00;;;;;;5028736;28;20430;-52
2023/04/18 10:27:48;;;;;;;14.48;6.93;;;13.70;1.00;;;;;;5027965;28;20390;-52
2023/04/18 10:30:15;;;;;;;14.27;6.70;;;13.60;1.00;;;;;;5027379;28;20425;-52
2023/04/18 10:32:41;;;;;;;17.30;8.25;;;13.40;1.00;;;;;;5028424;28;20379;-52
2023/04/18 10:35:07;;;;;;;15.13;7.40;;;13.70;1.00;;;;;;5028820;28;20395;-52
2023/04/18 10:37:32;;;;;;;14.88;7.50;;;13.90;1.00;;;;;;5027658;28;20494;-51
2023/04/18 10:40:04;;;;;;;14.63;7.05;;;13.90;1.00;;;;;;5028693;28;20895;-52
2023/04/18 10:42:49;;;;;;;16.25;7.50;;;14.10;1.00;;;;;;5027732;28;20437;-51
2023/04/18 10:45:27;;;;;;;15.43;7.40;;;14.30;1.00;;;;;;5028573;28;20498;-52
2023/04/18 10:48:26;;;;;;;16.58;6.97;;;14.50;1.00;;;;;;5028807;28;20860;-51
2023/04/18 10:51:18;;;;;;;16.83;7.03;;;14.50;1.00;;;;;;5028604;28;20547;-52
2023/04/18 10:53:56;;;;;;;16.60;7.28;;;14.50;1.00;;;;;;5028587;28;20871;-52
2023/04/18 10:56:22;;;;;;;16.00;6.95;;;14.30;1.00;;;;;;5027957;28;20466;-52
2023/04/18 10:58:52;;;;;;;15.27;6.72;;;14.20;1.00;;;;;;5028451;28;20426;-51
2023/04/18 11:01:29;;;;;;;14.73;6.63;;;14.30;1.00;;;;;;5028006;28;20399;-51
2023/04/18 11:03:55;;;;;;;12.23;5.53;;;15.40;1.00;;;;;;5028793;28;20665;-52
2023/04/18 11:06:22;;;;;;;14.63;6.40;;;14.40;1.00;;;;;;5027896;28;20379;-52
2023/04/18 11:08:50;;;;;;;12.90;5.90;;;14.30;1.00;;;;;;5028155;28;20395;-52
2023/04/18 11:11:16;;;;;;;16.17;6.40;;;14.10;1.00;;;;;;5026212;28;20402;-52
2023/04/18 11:13:56;;;;;;;12.03;5.47;;;14.20;1.00;;;;;;5021300;28;20706;-51
2023/04/18 11:16:25;;;;;;;13.63;5.85;;;14.50;1.00;;;;;;5007406;28;20430;-51
2023/04/18 11:18:51;;;;;;;15.43;6.60;;;14.40;1.00;;;;;;5008209;28;20499;-51
2023/04/18 11:21:17;;;;;;;14.73;5.78;;;14.40;1.00;;;;;;5007871;28;20993;-51
2023/04/18 11:23:42;;;;;;;13.40;5.25;;;14.30;1.00;;;;;;5010429;28;20384;-52
2023/04/18 11:26:08;;;;;;;12.33;5.47;;;14.40;1.00;;;;;;5012030;28;20475;-51
2023/04/18 11:28:34;;;;;;;12.15;5.55;;;14.50;1.00;;;;;;5011493;28;20407;-51
2023/04/18 11:31:01;;;;;;;11.90;6.00;;;14.60;1.00;;;;;;5012450;28;20889;-51
2023/04/18 11:33:28;;;;;;;12.35;6.35;;;14.70;1.00;;;;;;5009905;28;20436;-52
2023/04/18 11:35:57;;;;;;;13.23;5.33;;;14.60;1.00;;;;;;5012158;28;20806;-52
2023/04/18 11:38:29;;;;;;;14.95;6.03;;;14.10;1.00;;;;;;5011251;28;20885;-52
2023/04/18 11:40:56;;;;;;;14.43;5.95;;;14.30;1.00;;;;;;5012488;28;20421;-51
2023/04/18 11:43:23;;;;;;;14.35;5.53;;;14.30;1.00;;;;;;5011223;28;20481;-51
2023/04/18 11:45:54;;;;;;;17.75;6.85;;;14.00;1.00;;;;;;5012350;28;20454;-51
2023/04/18 11:48:20;;;;;;;13.80;6.13;;;13.90;1.00;;;;;;5011264;28;20396;-51
2023/04/18 11:50:46;;;;;;;15.30;7.10;;;14.00;1.00;;;;;;5011814;28;20436;-52
2023/04/18 11:53:11;;;;;;;15.80;7.30;;;13.80;1.00;;;;;;5010129;28;20459;-51
2023/04/18 11:55:37;;;;;;;13.70;6.43;;;13.90;1.00;;;;;;5011175;28;20384;-51
2023/04/18 11:58:03;;;;;;;16.80;6.73;;;14.20;1.00;;;;;;5011264;28;20436;-52
2023/04/18 12:00:37;;;;;;;16.10;6.63;;;14.40;1.00;;;;;;5009518;28;20400;-52
2023/04/18 12:03:06;;;;;;;16.70;7.10;;;14.50;1.00;;;;;;5011722;28;20397;-52
2023/04/18 12:05:37;;;;;;;17.75;7.55;;;14.40;1.00;;;;;;5010044;28;20385;-52
2023/04/18 12:08:12;;;;;;;21.70;7.40;;;14.10;1.00;;;;;;5009080;28;20419;-52
2023/04/18 12:10:49;;;;;;;17.53;7.67;;;14.20;1.00;;;;;;5004559;28;20558;-51
2023/04/18 12:13:15;;;;;;;13.80;6.80;;;14.30;1.00;;;;;;5003904;28;20394;-52
2023/04/18 12:15:43;;;;;;;17.35;7.57;;;14.30;1.00;;;;;;5000788;28;20394;-51
2023/04/18 12:18:11;;;;;;;17.08;6.82;;;14.20;1.00;;;;;;5001199;28;20466;-51
2023/04/18 12:20:52;;;;;;;15.73;7.15;;;14.20;1.00;;;;;;5001185;28;20480;-51
2023/04/18 12:23:47;;;;;;;18.08;8.20;;;14.30;1.00;;;;;;5001090;28;20405;-51
2023/04/18 12:26:19;;;;;;;16.38;7.78;;;14.80;1.00;;;;;;4978327;28;20440;-52
2023/04/18 12:28:48;;;;;;;16.65;7.43;;;15.40;1.00;;;;;;4991481;28;20409;-52
2023/04/18 12:31:14;;;;;;;18.45;7.65;;;15.70;1.00;;;;;;4991700;28;20394;-62
2023/04/18 12:33:40;;;;;;;19.57;8.47;;;15.80;1.00;;;;;;4991067;28;20394;-64
2023/04/18 12:36:07;;;;;;;13.10;6.47;;;16.20;1.00;;;;;;4991852;28;20395;-63
2023/04/18 12:38:34;;;;;;;15.52;6.60;;;16.20;1.00;;;;;;4990689;28;20533;-64
2023/04/18 12:40:59;;;;;;;12.98;5.13;;;16.30;1.00;;;;;;4992438;28;20394;-63
2023/04/18 12:43:25;;;;;;;12.77;5.60;;;16.20;1.00;;;;;;5006723;28;20734;-64
2023/04/18 12:45:51;;;;;;;11.60;4.43;;;16.10;1.00;;;;;;5009685;28;20396;-62
2023/04/18 12:48:16;;;;;;;9.50;3.83;;;16.20;1.00;;;;;;5010847;28;20821;-58
2023/04/18 12:50:42;;;;;;;10.90;4.23;;;16.00;1.00;;;;;;5010528;28;20444;-63
2023/04/18 12:53:08;;;;;;;12.30;4.72;;;16.10;1.00;;;;;;5009270;28;20404;-63
2023/04/18 12:55:34;;;;;;;12.95;4.93;;;15.80;99.90;;;;;;5009748;28;20749;-63